createdAt,value
2023-05-21T00:01:54.601Z,14.12
2023-05-21T00:04:58.199Z,14.08
2023-05-21T00:08:02.454Z,14.08
2023-05-21T00:11:06.591Z,14.08
2023-05-21T00:14:10.724Z,14.08
2023-05-21T00:17:16.027Z,14.04
2023-05-21T00:20:20.049Z,14.02
2023-05-21T00:23:23.648Z,14.01
2023-05-21T00:26:27.672Z,14.01
2023-05-21T00:29:33.856Z,13.99
2023-05-21T00:32:39.658Z,13.96
2023-05-21T00:35:43.492Z,13.95
2023-05-21T00:38:47.537Z,13.93
2023-05-21T00:41:51.521Z,13.95
2023-05-21T00:44:55.675Z,13.93
2023-05-21T00:48:02.822Z,13.93
2023-05-21T00:51:08.235Z,13.89
2023-05-21T00:54:12.153Z,13.86
2023-05-21T00:57:16.622Z,13.85
2023-05-21T01:00:21.308Z,13.85
2023-05-21T01:03:27.255Z,13.86
2023-05-21T01:06:34.883Z,13.87
2023-05-21T01:09:39.509Z,13.87
2023-05-21T01:12:45.838Z,13.90
2023-05-21T01:15:52.222Z,13.89
2023-05-21T01:18:58.110Z,13.87
2023-05-21T01:22:06.402Z,13.84
2023-05-21T01:25:12.445Z,13.80
2023-05-21T01:28:16.752Z,13.77
2023-05-21T01:31:29.423Z,13.72
2023-05-21T01:34:43.297Z,13.70
2023-05-21T01:37:55.305Z,13.67
2023-05-21T01:41:06.969Z,13.64
2023-05-21T01:44:13.200Z,13.63
2023-05-21T01:47:20.177Z,13.61
2023-05-21T01:50:25.776Z,13.57
2023-05-21T01:53:30.131Z,13.56
2023-05-21T01:56:37.077Z,13.55
2023-05-21T01:59:41.283Z,13.50
2023-05-21T02:02:45.100Z,13.48
2023-05-21T02:05:49.608Z,13.44
2023-05-21T02:08:53.478Z,13.43
2023-05-21T02:11:59.436Z,13.40
2023-05-21T02:15:04.034Z,13.39
2023-05-21T02:18:08.752Z,13.37
2023-05-21T02:21:13.541Z,13.37
2023-05-21T02:24:18.621Z,13.37
2023-05-21T02:27:23.982Z,13.35
2023-05-21T02:30:29.632Z,13.35
2023-05-21T02:33:33.414Z,13.32
2023-05-21T02:36:37.655Z,13.28
2023-05-21T02:39:41.538Z,13.26
2023-05-21T02:42:47.374Z,13.27
2023-05-21T02:45:55.822Z,13.23
2023-05-21T02:48:59.970Z,13.19
2023-05-21T02:52:03.826Z,13.14
2023-05-21T02:55:09.418Z,13.11
2023-05-21T02:58:15.512Z,13.11
2023-05-21T03:01:19.787Z,13.11
2023-05-21T03:04:23.481Z,13.10
2023-05-21T03:07:27.614Z,13.09
2023-05-21T03:10:31.566Z,13.06
2023-05-21T03:13:37.330Z,13.06
2023-05-21T03:16:41.865Z,13.05
2023-05-21T03:19:46.289Z,13.05
2023-05-21T03:22:50.407Z,13.04
2023-05-21T03:25:54.421Z,13.06
2023-05-21T03:29:01.511Z,13.08
2023-05-21T03:32:07.053Z,13.09
2023-05-21T03:35:11.525Z,13.12
2023-05-21T03:38:15.530Z,13.15
2023-05-21T03:41:19.528Z,13.22
2023-05-21T03:44:32.606Z,13.25
2023-05-21T03:47:52.932Z,13.30
2023-05-21T03:50:57.601Z,13.33
2023-05-21T03:54:02.077Z,13.39
2023-05-21T03:57:06.459Z,13.43
2023-05-21T04:00:14.046Z,13.47
2023-05-21T04:03:20.938Z,13.49
2023-05-21T04:06:25.078Z,13.55
2023-05-21T04:09:29.193Z,13.61
2023-05-21T04:12:32.950Z,13.66
2023-05-21T04:15:38.996Z,13.68
2023-05-21T04:18:45.424Z,13.71
2023-05-21T04:21:50.665Z,13.77
2023-05-21T04:24:55.487Z,13.82
2023-05-21T04:28:05.354Z,13.89
2023-05-21T04:31:13.070Z,13.97
2023-05-21T04:34:19.081Z,14.03
2023-05-21T04:37:24.590Z,14.11
2023-05-21T04:40:28.444Z,14.21
2023-05-21T04:43:32.239Z,14.30
2023-05-21T04:46:40.316Z,14.37
2023-05-21T04:49:46.797Z,14.45
2023-05-21T04:52:51.181Z,14.52
2023-05-21T04:55:55.066Z,14.58
2023-05-21T04:59:00.050Z,14.67
2023-05-21T05:02:05.504Z,14.78
2023-05-21T05:05:10.476Z,14.87
2023-05-21T05:08:15.950Z,14.94
2023-05-21T05:11:20.440Z,15.03
2023-05-21T05:14:24.387Z,15.11
2023-05-21T05:17:29.834Z,15.18
2023-05-21T05:20:35.464Z,15.24
2023-05-21T05:23:39.322Z,15.31
2023-05-21T05:26:44.760Z,15.37
2023-05-21T05:29:49.676Z,15.45
2023-05-21T05:32:54.904Z,15.53
2023-05-21T05:35:59.020Z,15.61
2023-05-21T05:39:02.878Z,15.69
2023-05-21T05:42:07.664Z,15.76
2023-05-21T05:45:13.115Z,15.86
2023-05-21T05:48:18.977Z,15.93
2023-05-21T05:51:23.230Z,16.02
2023-05-21T05:54:27.990Z,16.11
2023-05-21T05:57:31.690Z,16.23
2023-05-21T06:00:40.021Z,16.29
2023-05-21T06:03:45.841Z,16.35
2023-05-21T06:06:52.814Z,16.39
2023-05-21T06:09:56.968Z,16.44
2023-05-21T06:13:01.066Z,16.45
2023-05-21T06:16:06.395Z,16.48
2023-05-21T06:19:11.838Z,16.52
2023-05-21T06:22:16.557Z,16.59
2023-05-21T06:25:20.879Z,16.72
2023-05-21T06:28:24.867Z,16.90
2023-05-21T06:31:33.467Z,17.09
2023-05-21T06:34:38.880Z,17.28
2023-05-21T06:37:43.248Z,17.44
2023-05-21T06:40:47.858Z,17.58
2023-05-21T06:44:00.981Z,17.67
2023-05-21T06:47:33.237Z,17.78
2023-05-21T06:50:38.466Z,17.87
2023-05-21T06:53:43.320Z,17.97
2023-05-21T06:56:47.542Z,18.08
2023-05-21T06:59:52.386Z,18.21
2023-05-21T07:02:56.354Z,18.30
2023-05-21T07:06:01.927Z,18.36
2023-05-21T07:09:06.192Z,18.41
2023-05-21T07:12:10.044Z,18.50
2023-05-21T07:15:14.978Z,18.56
2023-05-21T07:18:18.754Z,18.62
2023-05-21T07:21:24.090Z,18.66
2023-05-21T07:24:29.043Z,18.64
2023-05-21T07:27:32.834Z,18.59
2023-05-21T07:30:36.849Z,18.55
2023-05-21T07:33:45.221Z,18.51
2023-05-21T07:36:51.343Z,18.50
2023-05-21T07:39:55.973Z,18.54
2023-05-21T07:42:59.662Z,18.57
2023-05-21T07:46:09.793Z,18.63
2023-05-21T07:49:17.062Z,18.70
2023-05-21T07:52:24.459Z,18.82
2023-05-21T07:55:28.294Z,18.96
2023-05-21T07:58:32.663Z,19.06
2023-05-21T08:01:37.402Z,19.15
2023-05-21T08:04:42.529Z,19.25
2023-05-21T08:07:48.561Z,19.41
2023-05-21T08:10:52.607Z,19.52
2023-05-21T08:13:57.784Z,19.62
2023-05-21T08:17:02.073Z,19.74
2023-05-21T08:20:08.413Z,19.84
2023-05-21T08:23:15.731Z,19.92
2023-05-21T08:26:25.693Z,20.01
2023-05-21T08:29:29.608Z,20.15
2023-05-21T08:32:33.706Z,20.27
2023-05-21T08:35:38.570Z,20.39
2023-05-21T08:39:20.224Z,20.48
2023-05-21T08:42:37.877Z,20.53
2023-05-21T08:45:46.553Z,20.58
2023-05-21T08:48:54.929Z,20.66
2023-05-21T08:52:01.032Z,20.70
2023-05-21T08:55:08.186Z,20.78
2023-05-21T08:58:15.555Z,20.88
2023-05-21T09:01:20.414Z,20.97
2023-05-21T09:04:30.526Z,21.03
2023-05-21T09:07:49.296Z,21.13
2023-05-21T09:11:09.180Z,21.24
2023-05-21T09:14:22.307Z,21.36
2023-05-21T09:17:48.742Z,21.52
2023-05-21T09:21:28.617Z,21.58
2023-05-21T09:24:48.008Z,21.63
2023-05-21T09:27:54.123Z,21.70
2023-05-21T09:31:04.532Z,21.76
2023-05-21T09:34:12.131Z,21.80
2023-05-21T09:37:27.202Z,21.88
2023-05-21T09:40:32.949Z,22.03
2023-05-21T09:43:38.834Z,22.09
2023-05-21T09:46:43.350Z,22.16
2023-05-21T09:49:47.045Z,22.22
2023-05-21T09:52:53.205Z,22.29
2023-05-21T09:55:59.369Z,22.42
2023-05-21T09:59:05.569Z,22.52
2023-05-21T10:02:21.043Z,22.52
2023-05-21T10:05:29.057Z,22.67
2023-05-21T10:08:37.637Z,22.81
2023-05-21T10:11:46.082Z,22.96
2023-05-21T10:15:00.907Z,23.00
2023-05-21T10:18:06.534Z,23.04
2023-05-21T10:21:11.088Z,23.12
2023-05-21T10:24:16.712Z,23.18
2023-05-21T10:27:22.659Z,23.18
2023-05-21T10:30:28.799Z,23.19
2023-05-21T10:33:34.196Z,23.30
2023-05-21T10:36:39.656Z,23.39
2023-05-21T10:39:46.927Z,23.50
2023-05-21T10:43:42.677Z,23.67
2023-05-21T10:47:35.254Z,23.86
2023-05-21T10:51:19.504Z,24.02
2023-05-21T10:54:54.368Z,24.20
2023-05-21T10:58:44.379Z,24.32
2023-05-21T11:01:49.945Z,24.30
2023-05-21T11:05:00.956Z,24.44
2023-05-21T11:08:05.219Z,24.60
2023-05-21T11:11:09.410Z,24.66
2023-05-21T11:14:35.465Z,24.69
2023-05-21T11:17:42.117Z,24.90
2023-05-21T11:20:52.650Z,25.05
2023-05-21T11:24:01.130Z,25.14
2023-05-21T11:27:07.107Z,25.24
2023-05-21T11:30:16.429Z,25.42
2023-05-21T11:33:20.706Z,25.37
2023-05-21T11:36:25.608Z,25.40
2023-05-21T11:39:29.373Z,25.50
2023-05-21T11:42:36.643Z,25.73
2023-05-21T11:45:46.691Z,25.91
2023-05-21T11:48:54.111Z,26.02
2023-05-21T11:52:01.685Z,26.35
2023-05-21T11:55:07.575Z,26.69
2023-05-21T11:58:16.658Z,26.92
2023-05-21T12:01:24.476Z,27.11
2023-05-21T12:04:31.549Z,27.24
2023-05-21T12:07:37.013Z,27.30
2023-05-21T12:10:41.094Z,27.12
2023-05-21T12:13:45.034Z,27.05
2023-05-21T12:16:50.745Z,27.20
2023-05-21T12:19:58.104Z,27.37
2023-05-21T12:23:03.304Z,27.41
2023-05-21T12:26:08.206Z,27.70
2023-05-21T12:29:13.583Z,28.03
2023-05-21T12:32:17.963Z,28.21
2023-05-21T12:35:24.252Z,28.34
2023-05-21T12:38:33.489Z,28.57
2023-05-21T12:41:37.702Z,28.67
2023-05-21T12:44:44.650Z,28.74
2023-05-21T12:47:56.016Z,28.94
2023-05-21T12:51:01.035Z,29.25
2023-05-21T12:54:13.235Z,29.67
2023-05-21T12:57:18.670Z,30.20
2023-05-21T13:00:25.519Z,31.09
2023-05-21T13:03:29.118Z,32.04
2023-05-21T13:06:44.001Z,33.42
2023-05-21T13:09:48.992Z,34.61
2023-05-21T13:12:53.375Z,35.87
2023-05-21T13:15:57.737Z,36.75
2023-05-21T13:19:01.846Z,38.08
2023-05-21T13:22:07.368Z,40.06
2023-05-21T13:25:15.716Z,40.73
2023-05-21T13:28:19.332Z,41.60
2023-05-21T13:31:23.134Z,42.89
2023-05-21T13:34:26.915Z,44.02
2023-05-21T13:37:30.953Z,45.27
2023-05-21T13:40:38.678Z,45.95
2023-05-21T13:43:44.045Z,46.08
2023-05-21T13:46:47.950Z,46.03
2023-05-21T13:49:52.269Z,44.08
2023-05-21T13:52:55.936Z,41.82
2023-05-21T13:56:01.685Z,42.12
2023-05-21T13:59:05.325Z,42.13
2023-05-21T14:02:12.236Z,40.35
2023-05-21T14:05:16.048Z,37.66
2023-05-21T14:08:20.825Z,36.46
2023-05-21T14:11:26.063Z,37.46
2023-05-21T14:14:29.914Z,39.78
2023-05-21T14:17:33.538Z,41.99
2023-05-21T14:20:37.705Z,43.45
2023-05-21T14:23:41.459Z,44.49
2023-05-21T14:26:47.206Z,45.18
2023-05-21T14:29:50.952Z,43.40
2023-05-21T14:32:57.260Z,42.13
2023-05-21T14:36:02.639Z,43.00
2023-05-21T14:39:06.889Z,43.46
2023-05-21T14:42:11.902Z,41.65
2023-05-21T14:45:18.667Z,41.61
2023-05-21T14:48:24.257Z,42.43
2023-05-21T14:51:28.173Z,42.69
2023-05-21T14:54:31.975Z,43.51
2023-05-21T14:57:37.777Z,44.40
2023-05-21T15:00:41.256Z,44.74
2023-05-21T15:03:45.612Z,43.81
2023-05-21T15:06:50.554Z,40.34
2023-05-21T15:09:54.700Z,37.41
2023-05-21T15:12:59.662Z,36.52
2023-05-21T15:16:03.553Z,38.14
2023-05-21T15:19:07.546Z,40.03
2023-05-21T15:22:11.757Z,41.08
2023-05-21T15:25:15.880Z,41.73
2023-05-21T15:28:22.897Z,42.03
2023-05-21T15:31:26.639Z,42.50
2023-05-21T15:34:30.987Z,42.54
2023-05-21T15:37:34.579Z,42.42
2023-05-21T15:40:42.508Z,42.16
2023-05-21T15:43:48.110Z,42.29
2023-05-21T15:46:53.805Z,42.34
2023-05-21T15:49:59.007Z,42.31
2023-05-21T15:53:04.839Z,42.52
2023-05-21T15:56:09.297Z,42.66
2023-05-21T15:59:14.960Z,42.52
2023-05-21T16:02:18.681Z,42.14
2023-05-21T16:05:22.950Z,42.14
2023-05-21T16:08:26.639Z,42.17
2023-05-21T16:11:31.693Z,42.08
2023-05-21T16:14:37.228Z,41.30
2023-05-21T16:17:41.103Z,40.56
2023-05-21T16:20:44.814Z,39.84
2023-05-21T16:23:48.791Z,39.39
2023-05-21T16:26:52.357Z,39.11
2023-05-21T16:29:58.288Z,38.34
2023-05-21T16:33:02.299Z,37.17
2023-05-21T16:36:06.802Z,36.29
2023-05-21T16:39:10.808Z,35.86
2023-05-21T16:42:14.706Z,35.75
2023-05-21T16:45:21.561Z,35.94
2023-05-21T16:48:25.399Z,35.70
2023-05-21T16:51:29.024Z,35.51
2023-05-21T16:54:32.945Z,34.84
2023-05-21T16:57:36.852Z,34.29
2023-05-21T17:00:42.326Z,33.78
2023-05-21T17:03:46.319Z,33.18
2023-05-21T17:06:50.519Z,32.31
2023-05-21T17:09:54.248Z,31.32
2023-05-21T17:12:59.965Z,30.62
2023-05-21T17:16:09.481Z,30.38
2023-05-21T17:19:13.579Z,30.17
2023-05-21T17:22:17.368Z,29.98
2023-05-21T17:25:22.100Z,29.75
2023-05-21T17:28:25.736Z,29.54
2023-05-21T17:31:32.195Z,29.22
2023-05-21T17:34:35.964Z,28.64
2023-05-21T17:37:40.004Z,28.10
2023-05-21T17:40:43.688Z,27.58
2023-05-21T17:43:47.660Z,27.11
2023-05-21T17:46:53.925Z,26.58
2023-05-21T17:49:57.890Z,25.98
2023-05-21T17:53:01.970Z,25.41
2023-05-21T17:56:07.119Z,24.81
2023-05-21T17:59:11.294Z,24.33
2023-05-21T18:02:16.529Z,23.89
2023-05-21T18:05:20.458Z,23.54
2023-05-21T18:08:24.358Z,23.23
2023-05-21T18:11:28.093Z,22.95
2023-05-21T18:14:32.103Z,22.59
2023-05-21T18:17:37.641Z,22.31
2023-05-21T18:20:41.608Z,22.00
2023-05-21T18:23:45.114Z,21.70
2023-05-21T18:26:50.330Z,21.42
2023-05-21T18:29:54.050Z,21.16
2023-05-21T18:32:59.361Z,20.92
2023-05-21T18:36:03.260Z,20.76
2023-05-21T18:39:08.745Z,20.63
2023-05-21T18:42:14.211Z,20.50
2023-05-21T18:45:18.433Z,20.36
2023-05-21T18:48:24.361Z,20.19
2023-05-21T18:51:28.381Z,19.96
2023-05-21T18:54:32.151Z,19.72
2023-05-21T18:57:36.015Z,19.58
2023-05-21T19:00:40.400Z,19.44
2023-05-21T19:03:45.751Z,19.34
2023-05-21T19:06:49.380Z,19.25
2023-05-21T19:09:53.884Z,19.14
2023-05-21T19:12:57.819Z,18.97
2023-05-21T19:16:02.321Z,18.83
2023-05-21T19:19:07.452Z,18.73
2023-05-21T19:22:12.278Z,18.63
2023-05-21T19:25:16.044Z,18.43
2023-05-21T19:28:20.298Z,18.29
2023-05-21T19:31:25.469Z,18.19
2023-05-21T19:34:30.941Z,18.12
2023-05-21T19:37:35.457Z,18.07
2023-05-21T19:40:40.169Z,17.99
2023-05-21T19:43:44.396Z,17.90
2023-05-21T19:46:49.996Z,17.83
2023-05-21T19:49:55.834Z,17.74
2023-05-21T19:52:59.749Z,17.62
2023-05-21T19:56:03.426Z,17.51
2023-05-21T19:59:07.310Z,17.41
2023-05-21T20:02:16.094Z,17.27
2023-05-21T20:05:22.037Z,17.12
2023-05-21T20:08:25.880Z,17.03
2023-05-21T20:11:30.743Z,16.98
2023-05-21T20:14:34.744Z,16.94
2023-05-21T20:17:39.765Z,16.89
2023-05-21T20:20:46.863Z,16.81
2023-05-21T20:23:51.713Z,16.72
2023-05-21T20:26:56.038Z,16.66
2023-05-21T20:30:00.209Z,16.61
2023-05-21T20:33:04.266Z,16.57
2023-05-21T20:36:09.951Z,16.55
2023-05-21T20:39:14.914Z,16.50
2023-05-21T20:42:19.870Z,16.40
2023-05-21T20:45:23.473Z,16.34
2023-05-21T20:48:29.060Z,16.28
2023-05-21T20:51:34.418Z,16.22
2023-05-21T20:54:38.244Z,16.18
2023-05-21T20:57:42.372Z,16.13
2023-05-21T21:00:47.581Z,16.07
2023-05-21T21:03:51.593Z,16.02
2023-05-21T21:06:56.845Z,15.99
2023-05-21T21:10:00.546Z,15.92
2023-05-21T21:13:06.194Z,15.83
2023-05-21T21:16:10.434Z,15.77
2023-05-21T21:19:14.293Z,15.70
2023-05-21T21:22:19.343Z,15.63
2023-05-21T21:25:23.452Z,15.58
2023-05-21T21:28:27.249Z,15.54
2023-05-21T21:31:31.816Z,15.49
2023-05-21T21:34:35.370Z,15.45
2023-05-21T21:37:41.240Z,15.41
2023-05-21T21:40:44.929Z,15.37
2023-05-21T21:43:48.944Z,15.32
2023-05-21T21:46:52.518Z,15.25
2023-05-21T21:49:56.900Z,15.19
2023-05-21T21:53:03.590Z,15.09
2023-05-21T21:56:07.781Z,15.01
2023-05-21T21:59:11.436Z,14.96
2023-05-21T22:02:16.995Z,14.93
2023-05-21T22:05:21.003Z,14.84
2023-05-21T22:08:28.367Z,14.78
2023-05-21T22:11:32.367Z,14.77
2023-05-21T22:14:36.156Z,14.75
2023-05-21T22:17:40.177Z,14.73
2023-05-21T22:20:46.243Z,14.70
2023-05-21T22:23:51.214Z,14.70
2023-05-21T22:26:55.127Z,14.68
2023-05-21T22:29:58.751Z,14.68
2023-05-21T22:33:02.656Z,14.67
2023-05-21T22:36:07.500Z,14.66
2023-05-21T22:39:12.821Z,14.64
2023-05-21T22:42:16.380Z,14.61
2023-05-21T22:45:21.739Z,14.58
2023-05-21T22:48:25.318Z,14.57
2023-05-21T22:51:34.826Z,14.55
2023-05-21T22:56:50.358Z,14.51
2023-05-21T22:59:54.233Z,14.46
2023-05-21T23:02:57.996Z,14.40
2023-05-21T23:06:01.938Z,14.37
2023-05-21T23:09:06.092Z,14.34
2023-05-21T23:12:11.962Z,14.31
2023-05-21T23:15:16.035Z,14.30
2023-05-21T23:18:20.129Z,14.26
2023-05-21T23:21:23.930Z,14.21
2023-05-21T23:24:29.314Z,14.17
2023-05-21T23:27:34.518Z,14.13
2023-05-21T23:30:38.517Z,14.06
2023-05-21T23:33:42.636Z,14.03
2023-05-21T23:36:46.420Z,14.00
2023-05-21T23:39:51.148Z,13.96
2023-05-21T23:42:57.001Z,13.93
2023-05-21T23:46:00.673Z,13.90
2023-05-21T23:49:04.565Z,13.84
2023-05-21T23:52:08.980Z,13.79
2023-05-21T23:55:14.776Z,13.76
2023-05-21T23:58:20.248Z,13.70
